sensor_id;sensor_type;location;lat;lon;timestamp;temperature;humidity
20442;DHT22;10380;52.102;20.614;2023-02-22T00:01:54;4.60;99.90
20442;DHT22;10380;52.102;20.614;2023-02-22T00:04:37;4.60;99.90
20442;DHT22;10380;52.102;20.614;2023-02-22T00:07:07;4.60;99.90
20442;DHT22;10380;52.102;20.614;2023-02-22T00:09:36;4.50;99.90
20442;DHT22;10380;52.102;20.614;2023-02-22T00:12:02;4.50;99.90
20442;DHT22;10380;52.102;20.614;2023-02-22T00:14:29;4.50;99.90
20442;DHT22;10380;52.102;20.614;2023-02-22T00:16:56;4.40;99.90
20442;DHT22;10380;52.102;20.614;2023-02-22T00:19:26;4.40;99.90
20442;DHT22;10380;52.102;20.614;2023-02-22T00:21:53;4.40;99.90
20442;DHT22;10380;52.102;20.614;2023-02-22T00:24:21;4.40;99.90
20442;DHT22;10380;52.102;20.614;2023-02-22T00:26:52;4.40;99.90
20442;DHT22;10380;52.102;20.614;2023-02-22T00:29:22;4.40;99.90
20442;DHT22;10380;52.102;20.614;2023-02-22T00:31:50;4.40;99.90
20442;DHT22;10380;52.102;20.614;2023-02-22T00:34:18;4.40;99.90
20442;DHT22;10380;52.102;20.614;2023-02-22T00:36:46;4.40;99.90
20442;DHT22;10380;52.102;20.614;2023-02-22T00:39:13;4.40;99.90
20442;DHT22;10380;52.102;20.614;2023-02-22T00:41:41;4.40;99.90
20442;DHT22;10380;52.102;20.614;2023-02-22T00:44:08;4.30;99.90
20442;DHT22;10380;52.102;20.614;2023-02-22T00:46:36;4.30;99.90
20442;DHT22;10380;52.102;20.614;2023-02-22T00:49:04;4.40;99.90
20442;DHT22;10380;52.102;20.614;2023-02-22T00:51:31;4.40;99.90
20442;DHT22;10380;52.102;20.614;2023-02-22T00:54:00;4.40;99.90
20442;DHT22;10380;52.102;20.614;2023-02-22T00:56:27;4.40;99.90
20442;DHT22;10380;52.102;20.614;2023-02-22T00:58:54;4.30;99.90
20442;DHT22;10380;52.102;20.614;2023-02-22T01:01:21;4.30;99.90
20442;DHT22;10380;52.102;20.614;2023-02-22T01:03:50;4.20;99.90
20442;DHT22;10380;52.102;20.614;2023-02-22T01:06:18;4.20;99.90
20442;DHT22;10380;52.102;20.614;2023-02-22T01:08:46;4.20;99.90
20442;DHT22;10380;52.102;20.614;2023-02-22T01:11:15;4.10;99.90
20442;DHT22;10380;52.102;20.614;2023-02-22T01:13:43;4.10;99.90
20442;DHT22;10380;52.102;20.614;2023-02-22T01:16:13;4.00;99.90
20442;DHT22;10380;52.102;20.614;2023-02-22T01:18:40;4.00;99.90
20442;DHT22;10380;52.102;20.614;2023-02-22T01:21:07;4.00;99.90
20442;DHT22;10380;52.102;20.614;2023-02-22T01:23:35;3.90;99.90
20442;DHT22;10380;52.102;20.614;2023-02-22T01:26:04;3.90;99.90
20442;DHT22;10380;52.102;20.614;2023-02-22T01:28:32;3.80;99.90
20442;DHT22;10380;52.102;20.614;2023-02-22T01:30:59;3.80;99.90
20442;DHT22;10380;52.102;20.614;2023-02-22T01:33:27;3.70;99.90
20442;DHT22;10380;52.102;20.614;2023-02-22T01:35:54;3.60;99.90
20442;DHT22;10380;52.102;20.614;2023-02-22T01:38:21;3.60;99.90
20442;DHT22;10380;52.102;20.614;2023-02-22T01:40:50;3.50;99.90
20442;DHT22;10380;52.102;20.614;2023-02-22T01:43:28;3.40;99.90
20442;DHT22;10380;52.102;20.614;2023-02-22T01:48:43;3.40;99.90
20442;DHT22;10380;52.102;20.614;2023-02-22T01:51:21;3.30;99.90
20442;DHT22;10380;52.102;20.614;2023-02-22T01:56:21;3.20;99.90
20442;DHT22;10380;52.102;20.614;2023-02-22T01:58:56;3.20;99.90
20442;DHT22;10380;52.102;20.614;2023-02-22T02:01:27;3.10;99.90
20442;DHT22;10380;52.102;20.614;2023-02-22T02:03:56;3.00;99.90
20442;DHT22;10380;52.102;20.614;2023-02-22T02:06:27;3.00;99.90
20442;DHT22;10380;52.102;20.614;2023-02-22T02:09:20;2.90;99.90
20442;DHT22;10380;52.102;20.614;2023-02-22T02:11:49;2.90;99.90
20442;DHT22;10380;52.102;20.614;2023-02-22T02:14:16;2.90;99.90
20442;DHT22;10380;52.102;20.614;2023-02-22T02:16:47;2.80;99.90
20442;DHT22;10380;52.102;20.614;2023-02-22T02:19:35;2.80;99.90
20442;DHT22;10380;52.102;20.614;2023-02-22T02:39:30;2.50;99.90
20442;DHT22;10380;52.102;20.614;2023-02-22T02:42:02;2.50;99.90
20442;DHT22;10380;52.102;20.614;2023-02-22T02:44:46;2.40;99.90
20442;DHT22;10380;52.102;20.614;2023-02-22T02:47:26;2.40;99.90
20442;DHT22;10380;52.102;20.614;2023-02-22T02:52:33;2.30;99.90
20442;DHT22;10380;52.102;20.614;2023-02-22T02:55:02;2.30;99.90
20442;DHT22;10380;52.102;20.614;2023-02-22T02:57:32;2.30;99.90
20442;DHT22;10380;52.102;20.614;2023-02-22T02:59:59;2.20;99.90
20442;DHT22;10380;52.102;20.614;2023-02-22T03:05:34;2.20;99.90
20442;DHT22;10380;52.102;20.614;2023-02-22T03:18:36;2.10;99.90
20442;DHT22;10380;52.102;20.614;2023-02-22T03:21:11;2.10;99.90
20442;DHT22;10380;52.102;20.614;2023-02-22T03:23:53;2.10;99.90
20442;DHT22;10380;52.102;20.614;2023-02-22T03:26:42;2.10;99.90
20442;DHT22;10380;52.102;20.614;2023-02-22T03:29:12;2.10;99.90
20442;DHT22;10380;52.102;20.614;2023-02-22T03:31:50;2.10;99.90
20442;DHT22;10380;52.102;20.614;2023-02-22T03:34:24;2.10;99.90
20442;DHT22;10380;52.102;20.614;2023-02-22T03:37:02;2.00;99.90
20442;DHT22;10380;52.102;20.614;2023-02-22T03:39:35;2.00;99.90
20442;DHT22;10380;52.102;20.614;2023-02-22T03:42:07;1.90;99.90
20442;DHT22;10380;52.102;20.614;2023-02-22T03:44:37;1.90;99.90
20442;DHT22;10380;52.102;20.614;2023-02-22T03:47:12;1.90;99.90
20442;DHT22;10380;52.102;20.614;2023-02-22T03:49:54;1.90;99.90
20442;DHT22;10380;52.102;20.614;2023-02-22T03:52:23;1.90;99.90
20442;DHT22;10380;52.102;20.614;2023-02-22T03:54:51;1.80;99.90
20442;DHT22;10380;52.102;20.614;2023-02-22T03:57:26;1.80;99.90
20442;DHT22;10380;52.102;20.614;2023-02-22T03:59:54;1.80;99.90
20442;DHT22;10380;52.102;20.614;2023-02-22T04:02:22;1.80;99.90
20442;DHT22;10380;52.102;20.614;2023-02-22T04:04:49;1.70;99.90
20442;DHT22;10380;52.102;20.614;2023-02-22T04:07:17;1.60;99.90
20442;DHT22;10380;52.102;20.614;2023-02-22T04:10:01;1.60;99.90
20442;DHT22;10380;52.102;20.614;2023-02-22T04:12:29;1.60;99.90
20442;DHT22;10380;52.102;20.614;2023-02-22T04:14:56;1.60;99.90
20442;DHT22;10380;52.102;20.614;2023-02-22T04:17:23;1.60;99.90
20442;DHT22;10380;52.102;20.614;2023-02-22T04:19:50;1.60;99.90
20442;DHT22;10380;52.102;20.614;2023-02-22T04:22:17;1.60;99.90
20442;DHT22;10380;52.102;20.614;2023-02-22T04:24:45;1.60;99.90
20442;DHT22;10380;52.102;20.614;2023-02-22T04:27:13;1.60;99.90
20442;DHT22;10380;52.102;20.614;2023-02-22T04:29:40;1.60;99.90
20442;DHT22;10380;52.102;20.614;2023-02-22T04:32:07;1.60;99.90
20442;DHT22;10380;52.102;20.614;2023-02-22T04:34:34;1.60;99.90
20442;DHT22;10380;52.102;20.614;2023-02-22T04:37:01;1.60;99.90
20442;DHT22;10380;52.102;20.614;2023-02-22T04:39:29;1.70;99.90
20442;DHT22;10380;52.102;20.614;2023-02-22T04:41:56;1.60;99.90
20442;DHT22;10380;52.102;20.614;2023-02-22T04:44:23;1.70;99.90
20442;DHT22;10380;52.102;20.614;2023-02-22T04:46:50;1.70;99.90
20442;DHT22;10380;52.102;20.614;2023-02-22T04:49:18;1.60;99.90
20442;DHT22;10380;52.102;20.614;2023-02-22T04:51:45;1.70;99.90
20442;DHT22;10380;52.102;20.614;2023-02-22T04:54:12;1.70;99.90
20442;DHT22;10380;52.102;20.614;2023-02-22T04:56:39;1.70;99.90
20442;DHT22;10380;52.102;20.614;2023-02-22T04:59:06;1.70;99.90
20442;DHT22;10380;52.102;20.614;2023-02-22T05:01:34;1.80;99.90
20442;DHT22;10380;52.102;20.614;2023-02-22T05:04:05;1.80;99.90
20442;DHT22;10380;52.102;20.614;2023-02-22T05:06:32;1.80;99.90
20442;DHT22;10380;52.102;20.614;2023-02-22T05:09:00;1.80;99.90
20442;DHT22;10380;52.102;20.614;2023-02-22T05:11:27;1.80;99.90
20442;DHT22;10380;52.102;20.614;2023-02-22T05:13:54;1.90;99.90
20442;DHT22;10380;52.102;20.614;2023-02-22T05:16:21;1.90;99.90
20442;DHT22;10380;52.102;20.614;2023-02-22T05:18:49;1.90;99.90
20442;DHT22;10380;52.102;20.614;2023-02-22T05:21:15;1.90;99.90
20442;DHT22;10380;52.102;20.614;2023-02-22T05:23:43;1.90;99.90
20442;DHT22;10380;52.102;20.614;2023-02-22T05:26:10;2.00;99.90
20442;DHT22;10380;52.102;20.614;2023-02-22T05:28:37;2.00;99.90
20442;DHT22;10380;52.102;20.614;2023-02-22T05:31:05;2.10;99.90
20442;DHT22;10380;52.102;20.614;2023-02-22T05:33:33;2.00;99.90
20442;DHT22;10380;52.102;20.614;2023-02-22T05:36:01;2.10;99.90
20442;DHT22;10380;52.102;20.614;2023-02-22T05:38:28;2.10;99.90
20442;DHT22;10380;52.102;20.614;2023-02-22T05:40:55;2.10;99.90
20442;DHT22;10380;52.102;20.614;2023-02-22T05:43:22;2.10;99.90
20442;DHT22;10380;52.102;20.614;2023-02-22T05:45:49;2.20;99.90
20442;DHT22;10380;52.102;20.614;2023-02-22T05:48:16;2.10;99.90
20442;DHT22;10380;52.102;20.614;2023-02-22T05:50:43;2.10;99.90
20442;DHT22;10380;52.102;20.614;2023-02-22T05:53:10;2.10;99.90
20442;DHT22;10380;52.102;20.614;2023-02-22T05:55:39;2.20;99.90
20442;DHT22;10380;52.102;20.614;2023-02-22T05:58:07;2.20;99.90
20442;DHT22;10380;52.102;20.614;2023-02-22T06:00:33;2.20;99.90
20442;DHT22;10380;52.102;20.614;2023-02-22T06:03:03;2.30;99.90
20442;DHT22;10380;52.102;20.614;2023-02-22T06:05:31;2.20;99.90
20442;DHT22;10380;52.102;20.614;2023-02-22T06:07:58;2.30;99.90
20442;DHT22;10380;52.102;20.614;2023-02-22T06:10:26;2.30;99.90
20442;DHT22;10380;52.102;20.614;2023-02-22T06:12:54;2.40;99.90
20442;DHT22;10380;52.102;20.614;2023-02-22T06:15:23;2.40;99.90
20442;DHT22;10380;52.102;20.614;2023-02-22T06:17:51;2.40;99.90
20442;DHT22;10380;52.102;20.614;2023-02-22T06:20:21;2.50;99.90
20442;DHT22;10380;52.102;20.614;2023-02-22T06:22:49;2.50;99.90
20442;DHT22;10380;52.102;20.614;2023-02-22T06:25:21;2.60;99.90
20442;DHT22;10380;52.102;20.614;2023-02-22T06:27:49;2.70;99.90
20442;DHT22;10380;52.102;20.614;2023-02-22T06:30:21;2.70;99.90
20442;DHT22;10380;52.102;20.614;2023-02-22T06:32:49;2.70;99.90
20442;DHT22;10380;52.102;20.614;2023-02-22T06:35:17;2.80;99.90
20442;DHT22;10380;52.102;20.614;2023-02-22T06:37:44;2.80;99.90
20442;DHT22;10380;52.102;20.614;2023-02-22T06:40:13;2.80;99.90
20442;DHT22;10380;52.102;20.614;2023-02-22T06:42:40;2.90;99.90
20442;DHT22;10380;52.102;20.614;2023-02-22T06:45:09;2.90;99.90
20442;DHT22;10380;52.102;20.614;2023-02-22T06:47:40;3.00;99.90
20442;DHT22;10380;52.102;20.614;2023-02-22T06:50:18;3.10;99.90
20442;DHT22;10380;52.102;20.614;2023-02-22T06:52:45;3.10;99.90
20442;DHT22;10380;52.102;20.614;2023-02-22T06:55:20;3.20;99.90
20442;DHT22;10380;52.102;20.614;2023-02-22T06:57:48;3.20;99.90
20442;DHT22;10380;52.102;20.614;2023-02-22T07:00:17;3.30;99.90
20442;DHT22;10380;52.102;20.614;2023-02-22T07:02:45;3.40;99.90
20442;DHT22;10380;52.102;20.614;2023-02-22T07:05:16;3.40;99.90
20442;DHT22;10380;52.102;20.614;2023-02-22T07:07:44;3.50;99.90
20442;DHT22;10380;52.102;20.614;2023-02-22T07:10:24;3.50;99.90
20442;DHT22;10380;52.102;20.614;2023-02-22T07:12:51;3.60;99.90
20442;DHT22;10380;52.102;20.614;2023-02-22T07:15:23;3.70;99.90
20442;DHT22;10380;52.102;20.614;2023-02-22T07:17:50;3.70;99.90
20442;DHT22;10380;52.102;20.614;2023-02-22T07:20:18;3.80;99.90
20442;DHT22;10380;52.102;20.614;2023-02-22T07:22:47;3.90;99.90
20442;DHT22;10380;52.102;20.614;2023-02-22T07:25:15;4.00;99.90
20442;DHT22;10380;52.102;20.614;2023-02-22T07:27:42;4.00;99.90
20442;DHT22;10380;52.102;20.614;2023-02-22T07:30:18;4.10;99.90
20442;DHT22;10380;52.102;20.614;2023-02-22T07:32:47;4.10;99.90
20442;DHT22;10380;52.102;20.614;2023-02-22T07:35:26;4.20;99.90
20442;DHT22;10380;52.102;20.614;2023-02-22T07:37:53;4.30;99.90
20442;DHT22;10380;52.102;20.614;2023-02-22T07:40:22;4.20;99.90
20442;DHT22;10380;52.102;20.614;2023-02-22T07:45:39;4.30;99.90
20442;DHT22;10380;52.102;20.614;2023-02-22T07:48:07;4.30;99.90
20442;DHT22;10380;52.102;20.614;2023-02-22T07:50:34;4.40;99.90
20442;DHT22;10380;52.102;20.614;2023-02-22T07:53:04;4.40;99.90
20442;DHT22;10380;52.102;20.614;2023-02-22T07:55:32;4.40;99.90
20442;DHT22;10380;52.102;20.614;2023-02-22T07:58:02;4.50;99.90
20442;DHT22;10380;52.102;20.614;2023-02-22T08:00:32;4.50;99.90
20442;DHT22;10380;52.102;20.614;2023-02-22T08:03:02;4.60;99.90
20442;DHT22;10380;52.102;20.614;2023-02-22T08:05:31;4.50;99.90
20442;DHT22;10380;52.102;20.614;2023-02-22T08:07:58;4.50;99.90
20442;DHT22;10380;52.102;20.614;2023-02-22T08:10:25;4.40;99.90
20442;DHT22;10380;52.102;20.614;2023-02-22T08:12:54;4.50;99.90
20442;DHT22;10380;52.102;20.614;2023-02-22T08:15:30;4.40;99.90
20442;DHT22;10380;52.102;20.614;2023-02-22T08:17:59;4.40;99.90
20442;DHT22;10380;52.102;20.614;2023-02-22T08:20:27;4.50;99.90
20442;DHT22;10380;52.102;20.614;2023-02-22T08:22:55;4.50;99.90
20442;DHT22;10380;52.102;20.614;2023-02-22T08:25:27;4.50;99.90
20442;DHT22;10380;52.102;20.614;2023-02-22T08:28:00;4.50;99.90
20442;DHT22;10380;52.102;20.614;2023-02-22T08:30:29;4.50;99.90
20442;DHT22;10380;52.102;20.614;2023-02-22T08:32:57;4.40;99.90
20442;DHT22;10380;52.102;20.614;2023-02-22T08:35:25;4.30;99.90
20442;DHT22;10380;52.102;20.614;2023-02-22T08:37:56;4.20;99.90
20442;DHT22;10380;52.102;20.614;2023-02-22T08:40:26;4.10;99.90
20442;DHT22;10380;52.102;20.614;2023-02-22T08:42:54;4.10;99.90
20442;DHT22;10380;52.102;20.614;2023-02-22T08:45:21;4.00;99.90
20442;DHT22;10380;52.102;20.614;2023-02-22T08:47:48;4.00;99.90
20442;DHT22;10380;52.102;20.614;2023-02-22T08:50:18;3.90;99.90
20442;DHT22;10380;52.102;20.614;2023-02-22T08:52:45;3.80;99.90
20442;DHT22;10380;52.102;20.614;2023-02-22T08:55:12;3.80;99.90
20442;DHT22;10380;52.102;20.614;2023-02-22T08:57:39;3.70;99.90
20442;DHT22;10380;52.102;20.614;2023-02-22T09:00:06;3.70;99.90
20442;DHT22;10380;52.102;20.614;2023-02-22T09:02:33;3.70;99.90
20442;DHT22;10380;52.102;20.614;2023-02-22T09:05:00;3.70;99.90
20442;DHT22;10380;52.102;20.614;2023-02-22T09:07:27;3.70;99.90
20442;DHT22;10380;52.102;20.614;2023-02-22T09:09:53;3.80;99.90
20442;DHT22;10380;52.102;20.614;2023-02-22T09:12:20;3.80;99.90
20442;DHT22;10380;52.102;20.614;2023-02-22T09:14:47;3.90;99.90
20442;DHT22;10380;52.102;20.614;2023-02-22T09:17:14;4.00;99.90
20442;DHT22;10380;52.102;20.614;2023-02-22T09:19:41;4.10;99.90
20442;DHT22;10380;52.102;20.614;2023-02-22T09:22:08;4.20;99.90
20442;DHT22;10380;52.102;20.614;2023-02-22T09:24:36;4.30;99.90
20442;DHT22;10380;52.102;20.614;2023-02-22T09:27:03;4.30;99.90
20442;DHT22;10380;52.102;20.614;2023-02-22T09:29:32;4.30;99.90
20442;DHT22;10380;52.102;20.614;2023-02-22T09:31:59;4.20;99.90
20442;DHT22;10380;52.102;20.614;2023-02-22T09:34:26;4.10;99.90
20442;DHT22;10380;52.102;20.614;2023-02-22T09:36:56;4.10;99.90
20442;DHT22;10380;52.102;20.614;2023-02-22T09:39:24;4.10;99.90
20442;DHT22;10380;52.102;20.614;2023-02-22T09:45:02;4.10;99.90
20442;DHT22;10380;52.102;20.614;2023-02-22T09:47:54;4.10;99.90
20442;DHT22;10380;52.102;20.614;2023-02-22T09:50:29;4.20;99.90
20442;DHT22;10380;52.102;20.614;2023-02-22T09:53:06;4.30;99.90
20442;DHT22;10380;52.102;20.614;2023-02-22T09:55:50;4.20;99.90
20442;DHT22;10380;52.102;20.614;2023-02-22T09:58:24;4.10;99.90
20442;DHT22;10380;52.102;20.614;2023-02-22T10:00:57;4.10;99.90
20442;DHT22;10380;52.102;20.614;2023-02-22T10:06:14;4.00;99.90
20442;DHT22;10380;52.102;20.614;2023-02-22T10:08:43;4.10;99.90
20442;DHT22;10380;52.102;20.614;2023-02-22T10:14:28;4.10;99.90
20442;DHT22;10380;52.102;20.614;2023-02-22T10:20:44;4.20;99.90
20442;DHT22;10380;52.102;20.614;2023-02-22T10:25:51;4.20;99.90
20442;DHT22;10380;52.102;20.614;2023-02-22T10:28:36;4.40;99.90
20442;DHT22;10380;52.102;20.614;2023-02-22T10:31:08;4.30;99.90
20442;DHT22;10380;52.102;20.614;2023-02-22T10:33:46;4.40;99.90
20442;DHT22;10380;52.102;20.614;2023-02-22T10:36:19;4.40;99.90
20442;DHT22;10380;52.102;20.614;2023-02-22T10:38:58;4.60;99.90
20442;DHT22;10380;52.102;20.614;2023-02-22T10:43:55;4.60;99.90
20442;DHT22;10380;52.102;20.614;2023-02-22T10:46:23;4.70;99.90
20442;DHT22;10380;52.102;20.614;2023-02-22T10:48:55;4.70;99.90
20442;DHT22;10380;52.102;20.614;2023-02-22T10:51:25;4.80;99.90
20442;DHT22;10380;52.102;20.614;2023-02-22T10:53:58;4.70;99.90
20442;DHT22;10380;52.102;20.614;2023-02-22T10:56:30;4.60;99.90
20442;DHT22;10380;52.102;20.614;2023-02-22T10:58:59;4.70;99.90
20442;DHT22;10380;52.102;20.614;2023-02-22T11:06:42;4.90;99.90
20442;DHT22;10380;52.102;20.614;2023-02-22T11:09:13;5.10;99.90
20442;DHT22;10380;52.102;20.614;2023-02-22T11:11:44;5.20;99.90
20442;DHT22;10380;52.102;20.614;2023-02-22T11:14:27;5.30;99.90
20442;DHT22;10380;52.102;20.614;2023-02-22T11:16:56;5.40;99.90
20442;DHT22;10380;52.102;20.614;2023-02-22T11:19:28;5.30;99.90
20442;DHT22;10380;52.102;20.614;2023-02-22T11:22:12;5.20;99.90
20442;DHT22;10380;52.102;20.614;2023-02-22T11:24:52;5.10;99.90
20442;DHT22;10380;52.102;20.614;2023-02-22T11:27:30;5.00;99.90
20442;DHT22;10380;52.102;20.614;2023-02-22T11:32:53;4.90;99.90
20442;DHT22;10380;52.102;20.614;2023-02-22T11:35:31;4.90;99.90
20442;DHT22;10380;52.102;20.614;2023-02-22T11:38:19;4.90;99.90
20442;DHT22;10380;52.102;20.614;2023-02-22T11:43:43;4.90;99.90
20442;DHT22;10380;52.102;20.614;2023-02-22T11:46:25;4.80;99.90
20442;DHT22;10380;52.102;20.614;2023-02-22T11:49:00;4.60;99.90
20442;DHT22;10380;52.102;20.614;2023-02-22T11:54:34;4.50;99.90
20442;DHT22;10380;52.102;20.614;2023-02-22T12:05:08;4.60;99.90
20442;DHT22;10380;52.102;20.614;2023-02-22T12:08:09;4.60;99.90
20442;DHT22;10380;52.102;20.614;2023-02-22T12:10:52;4.60;99.90
20442;DHT22;10380;52.102;20.614;2023-02-22T12:13:36;4.70;99.90
20442;DHT22;10380;52.102;20.614;2023-02-22T12:21:20;4.60;99.90
20442;DHT22;10380;52.102;20.614;2023-02-22T12:24:17;4.50;99.90
20442;DHT22;10380;52.102;20.614;2023-02-22T12:26:56;4.40;99.90
20442;DHT22;10380;52.102;20.614;2023-02-22T12:29:37;4.40;99.90
20442;DHT22;10380;52.102;20.614;2023-02-22T12:32:15;4.40;99.90
20442;DHT22;10380;52.102;20.614;2023-02-22T12:34:58;4.40;99.90
20442;DHT22;10380;52.102;20.614;2023-02-22T12:48:20;4.50;99.90
20442;DHT22;10380;52.102;20.614;2023-02-22T12:50:58;4.40;99.90
20442;DHT22;10380;52.102;20.614;2023-02-22T12:53:31;4.40;99.90
20442;DHT22;10380;52.102;20.614;2023-02-22T12:56:20;4.40;99.90
20442;DHT22;10380;52.102;20.614;2023-02-22T12:59:02;4.30;99.90
20442;DHT22;10380;52.102;20.614;2023-02-22T13:01:38;4.30;99.90
20442;DHT22;10380;52.102;20.614;2023-02-22T13:04:06;4.10;99.90
20442;DHT22;10380;52.102;20.614;2023-02-22T13:07:05;4.10;99.90
20442;DHT22;10380;52.102;20.614;2023-02-22T13:09:59;4.00;99.90
20442;DHT22;10380;52.102;20.614;2023-02-22T13:12:40;4.00;99.90
20442;DHT22;10380;52.102;20.614;2023-02-22T13:18:01;4.00;99.90
20442;DHT22;10380;52.102;20.614;2023-02-22T13:20:38;4.00;99.90
20442;DHT22;10380;52.102;20.614;2023-02-22T13:34:07;3.70;99.90
20442;DHT22;10380;52.102;20.614;2023-02-22T13:50:32;3.90;99.90
20442;DHT22;10380;52.102;20.614;2023-02-22T13:53:47;3.90;99.90
20442;DHT22;10380;52.102;20.614;2023-02-22T13:56:04;3.90;99.90
20442;DHT22;10380;52.102;20.614;2023-02-22T13:58:46;3.90;99.90
20442;DHT22;10380;52.102;20.614;2023-02-22T14:01:46;3.90;99.90
20442;DHT22;10380;52.102;20.614;2023-02-22T14:17:58;3.60;99.90
20442;DHT22;10380;52.102;20.614;2023-02-22T14:20:37;3.60;99.90
20442;DHT22;10380;52.102;20.614;2023-02-22T14:23:35;3.60;99.90
20442;DHT22;10380;52.102;20.614;2023-02-22T14:26:28;3.60;99.90
20442;DHT22;10380;52.102;20.614;2023-02-22T14:32:06;3.60;99.90
20442;DHT22;10380;52.102;20.614;2023-02-22T14:34:42;3.60;99.90
20442;DHT22;10380;52.102;20.614;2023-02-22T14:37:31;3.50;99.90
20442;DHT22;10380;52.102;20.614;2023-02-22T14:40:10;3.40;99.90
20442;DHT22;10380;52.102;20.614;2023-02-22T14:42:48;3.40;99.90
20442;DHT22;10380;52.102;20.614;2023-02-22T14:45:25;3.40;99.90
20442;DHT22;10380;52.102;20.614;2023-02-22T14:48:27;3.30;99.90
20442;DHT22;10380;52.102;20.614;2023-02-22T14:51:06;3.30;99.90
20442;DHT22;10380;52.102;20.614;2023-02-22T14:54:01;3.30;99.90
20442;DHT22;10380;52.102;20.614;2023-02-22T14:56:38;3.30;99.90
20442;DHT22;10380;52.102;20.614;2023-02-22T14:59:17;3.20;99.90
20442;DHT22;10380;52.102;20.614;2023-02-22T15:01:45;3.20;99.90
20442;DHT22;10380;52.102;20.614;2023-02-22T15:04:33;3.20;99.90
20442;DHT22;10380;52.102;20.614;2023-02-22T15:07:08;3.20;99.90
20442;DHT22;10380;52.102;20.614;2023-02-22T15:09:35;3.20;99.90
20442;DHT22;10380;52.102;20.614;2023-02-22T15:14:32;3.10;99.90
20442;DHT22;10380;52.102;20.614;2023-02-22T15:17:12;3.00;99.90
20442;DHT22;10380;52.102;20.614;2023-02-22T15:19:41;3.00;99.90
20442;DHT22;10380;52.102;20.614;2023-02-22T15:22:21;2.90;99.90
20442;DHT22;10380;52.102;20.614;2023-02-22T15:25:03;2.90;99.90
20442;DHT22;10380;52.102;20.614;2023-02-22T15:27:31;2.80;99.90
20442;DHT22;10380;52.102;20.614;2023-02-22T15:30:22;2.80;99.90
20442;DHT22;10380;52.102;20.614;2023-02-22T15:32:49;2.80;99.90
20442;DHT22;10380;52.102;20.614;2023-02-22T15:35:31;2.80;99.90
20442;DHT22;10380;52.102;20.614;2023-02-22T15:40:34;2.70;99.90
20442;DHT22;10380;52.102;20.614;2023-02-22T15:43:04;2.70;99.90
20442;DHT22;10380;52.102;20.614;2023-02-22T15:45:34;2.70;99.90
20442;DHT22;10380;52.102;20.614;2023-02-22T15:48:11;2.70;99.90
20442;DHT22;10380;52.102;20.614;2023-02-22T15:51:07;2.60;99.90
20442;DHT22;10380;52.102;20.614;2023-02-22T15:53:46;2.60;99.90
20442;DHT22;10380;52.102;20.614;2023-02-22T15:56:17;2.60;99.90
20442;DHT22;10380;52.102;20.614;2023-02-22T15:58:46;2.60;99.90
20442;DHT22;10380;52.102;20.614;2023-02-22T16:01:15;2.50;99.90
20442;DHT22;10380;52.102;20.614;2023-02-22T16:03:47;2.50;99.90
20442;DHT22;10380;52.102;20.614;2023-02-22T16:06:29;2.50;99.90
20442;DHT22;10380;52.102;20.614;2023-02-22T16:08:58;2.50;99.90
20442;DHT22;10380;52.102;20.614;2023-02-22T16:11:28;2.40;99.90
20442;DHT22;10380;52.102;20.614;2023-02-22T16:14:00;2.40;99.90
20442;DHT22;10380;52.102;20.614;2023-02-22T16:16:35;2.40;99.90
20442;DHT22;10380;52.102;20.614;2023-02-22T16:19:27;2.40;99.90
20442;DHT22;10380;52.102;20.614;2023-02-22T16:21:59;2.40;99.90
20442;DHT22;10380;52.102;20.614;2023-02-22T16:24:33;2.30;99.90
20442;DHT22;10380;52.102;20.614;2023-02-22T16:27:22;2.30;99.90
20442;DHT22;10380;52.102;20.614;2023-02-22T16:30:20;2.30;99.90
20442;DHT22;10380;52.102;20.614;2023-02-22T16:32:54;2.30;99.90
20442;DHT22;10380;52.102;20.614;2023-02-22T16:35:25;2.20;99.90
20442;DHT22;10380;52.102;20.614;2023-02-22T16:37:57;2.20;99.90
20442;DHT22;10380;52.102;20.614;2023-02-22T16:40:40;2.20;99.90
20442;DHT22;10380;52.102;20.614;2023-02-22T16:43:15;2.20;99.90
20442;DHT22;10380;52.102;20.614;2023-02-22T16:45:42;2.20;99.90
20442;DHT22;10380;52.102;20.614;2023-02-22T16:48:21;2.20;99.90
20442;DHT22;10380;52.102;20.614;2023-02-22T16:50:50;2.20;99.90
20442;DHT22;10380;52.102;20.614;2023-02-22T16:53:20;2.20;99.90
20442;DHT22;10380;52.102;20.614;2023-02-22T16:55:48;2.20;99.90
20442;DHT22;10380;52.102;20.614;2023-02-22T16:58:17;2.20;99.90
20442;DHT22;10380;52.102;20.614;2023-02-22T17:00:44;2.20;99.90
20442;DHT22;10380;52.102;20.614;2023-02-22T17:03:16;2.20;99.90
20442;DHT22;10380;52.102;20.614;2023-02-22T17:05:43;2.20;99.90
20442;DHT22;10380;52.102;20.614;2023-02-22T17:08:10;2.20;99.90
20442;DHT22;10380;52.102;20.614;2023-02-22T17:10:37;2.30;99.90
20442;DHT22;10380;52.102;20.614;2023-02-22T17:13:05;2.20;99.90
20442;DHT22;10380;52.102;20.614;2023-02-22T17:15:49;2.20;99.90
20442;DHT22;10380;52.102;20.614;2023-02-22T17:18:18;2.20;99.90
20442;DHT22;10380;52.102;20.614;2023-02-22T17:20:52;2.20;99.90
20442;DHT22;10380;52.102;20.614;2023-02-22T17:23:21;2.20;99.90
20442;DHT22;10380;52.102;20.614;2023-02-22T17:26:00;2.20;99.90
20442;DHT22;10380;52.102;20.614;2023-02-22T17:28:30;2.20;99.90
20442;DHT22;10380;52.102;20.614;2023-02-22T17:30:58;2.20;99.90
20442;DHT22;10380;52.102;20.614;2023-02-22T17:33:33;2.20;99.90
20442;DHT22;10380;52.102;20.614;2023-02-22T17:36:01;2.20;99.90
20442;DHT22;10380;52.102;20.614;2023-02-22T17:38:29;2.30;99.90
20442;DHT22;10380;52.102;20.614;2023-02-22T17:40:57;2.30;99.90
20442;DHT22;10380;52.102;20.614;2023-02-22T17:43:25;2.30;99.90
20442;DHT22;10380;52.102;20.614;2023-02-22T17:45:54;2.30;99.90
20442;DHT22;10380;52.102;20.614;2023-02-22T17:48:22;2.30;99.90
20442;DHT22;10380;52.102;20.614;2023-02-22T17:50:50;2.20;99.90
20442;DHT22;10380;52.102;20.614;2023-02-22T17:53:18;2.20;99.90
20442;DHT22;10380;52.102;20.614;2023-02-22T17:55:48;2.20;99.90
20442;DHT22;10380;52.102;20.614;2023-02-22T17:58:16;2.20;99.90
20442;DHT22;10380;52.102;20.614;2023-02-22T18:00:46;2.20;99.90
20442;DHT22;10380;52.102;20.614;2023-02-22T18:03:15;2.20;99.90
20442;DHT22;10380;52.102;20.614;2023-02-22T18:05:48;2.20;99.90
20442;DHT22;10380;52.102;20.614;2023-02-22T18:08:15;2.20;99.90
20442;DHT22;10380;52.102;20.614;2023-02-22T18:10:43;2.20;99.90
20442;DHT22;10380;52.102;20.614;2023-02-22T18:13:16;2.20;99.90
20442;DHT22;10380;52.102;20.614;2023-02-22T18:15:45;2.20;99.90
20442;DHT22;10380;52.102;20.614;2023-02-22T18:18:12;2.20;99.90
20442;DHT22;10380;52.102;20.614;2023-02-22T18:20:41;2.20;99.90
20442;DHT22;10380;52.102;20.614;2023-02-22T18:23:14;2.20;99.90
20442;DHT22;10380;52.102;20.614;2023-02-22T18:25:49;2.20;99.90
20442;DHT22;10380;52.102;20.614;2023-02-22T18:28:35;2.20;99.90